createdAt,value
2023-11-27T00:00:37.500Z,2.90
2023-11-27T00:03:07.595Z,3.00
2023-11-27T00:05:34.497Z,3.00
2023-11-27T00:08:01.244Z,3.00
2023-11-27T00:10:27.991Z,2.90
2023-11-27T00:13:00.130Z,2.90
2023-11-27T00:15:27.578Z,2.90
2023-11-27T00:17:55.084Z,2.90
2023-11-27T00:20:21.853Z,2.90
2023-11-27T00:22:48.579Z,2.90
2023-11-27T00:25:15.530Z,3.00
2023-11-27T00:27:43.421Z,3.40
2023-11-27T00:30:10.327Z,2.90
2023-11-27T00:32:37.036Z,2.90
2023-11-27T00:35:03.843Z,2.90
2023-11-27T00:37:30.540Z,2.90
2023-11-27T00:39:57.254Z,2.90
2023-11-27T00:42:23.959Z,2.90
2023-11-27T00:44:50.670Z,2.90
2023-11-27T00:47:18.576Z,2.80
2023-11-27T00:49:45.345Z,2.80
2023-11-27T00:52:12.032Z,2.80
2023-11-27T00:54:38.761Z,2.90
2023-11-27T00:57:05.671Z,2.90
2023-11-27T00:59:32.935Z,2.80
2023-11-27T01:02:00.085Z,2.80
2023-11-27T01:04:26.904Z,2.80
2023-11-27T01:06:53.707Z,2.80
2023-11-27T01:09:22.235Z,2.80
2023-11-27T01:11:48.965Z,2.80
2023-11-27T01:14:16.634Z,2.80
2023-11-27T01:16:43.332Z,2.80
2023-11-27T01:19:10.087Z,2.80
2023-11-27T01:21:36.820Z,2.80
2023-11-27T01:24:05.691Z,2.80
2023-11-27T01:26:32.642Z,2.80
2023-11-27T01:28:59.380Z,2.80
2023-11-27T01:31:26.056Z,2.80
2023-11-27T01:33:52.871Z,2.80
2023-11-27T01:36:19.611Z,2.80
2023-11-27T01:38:46.311Z,2.80
2023-11-27T01:41:13.042Z,2.80
2023-11-27T01:43:39.722Z,2.70
2023-11-27T01:46:25.836Z,2.80
2023-11-27T01:48:53.761Z,2.80
2023-11-27T01:51:22.368Z,2.70
2023-11-27T01:53:50.875Z,2.70
2023-11-27T01:56:17.960Z,2.70
2023-11-27T01:58:45.213Z,2.70
2023-11-27T02:01:12.199Z,2.70
2023-11-27T02:03:38.941Z,2.70
2023-11-27T02:06:05.750Z,2.70
2023-11-27T02:08:33.088Z,2.60
2023-11-27T02:10:59.819Z,2.60
2023-11-27T02:13:26.643Z,2.60
2023-11-27T02:15:53.830Z,2.60
2023-11-27T02:18:21.012Z,2.60
2023-11-27T02:20:47.758Z,2.60
2023-11-27T02:23:15.890Z,2.50
2023-11-27T02:25:42.636Z,2.60
2023-11-27T02:28:09.457Z,3.00
2023-11-27T02:30:36.409Z,2.50
2023-11-27T02:33:03.219Z,2.50
2023-11-27T02:35:33.813Z,2.60
2023-11-27T02:38:02.162Z,2.50
2023-11-27T02:40:29.894Z,2.50
2023-11-27T02:42:56.670Z,2.50
2023-11-27T02:45:23.378Z,2.50
2023-11-27T02:47:50.145Z,2.40
2023-11-27T02:50:16.898Z,2.50
2023-11-27T02:52:43.570Z,2.50
2023-11-27T02:55:10.305Z,2.40
2023-11-27T02:57:37.018Z,2.50
2023-11-27T03:00:04.418Z,2.50
2023-11-27T03:02:31.216Z,2.50
2023-11-27T03:04:57.950Z,2.40
2023-11-27T03:07:24.679Z,2.40
2023-11-27T03:09:51.444Z,2.40
2023-11-27T03:12:18.167Z,2.40
2023-11-27T03:14:45.644Z,2.40
2023-11-27T03:17:12.378Z,2.30
2023-11-27T03:19:47.247Z,2.30
2023-11-27T03:22:15.344Z,2.30
2023-11-27T03:24:42.376Z,2.30
2023-11-27T03:27:09.043Z,2.50
2023-11-27T03:29:35.798Z,2.30
2023-11-27T03:32:02.529Z,2.20
2023-11-27T03:34:29.687Z,2.20
2023-11-27T03:36:56.471Z,2.20
2023-11-27T03:39:23.181Z,2.20
2023-11-27T03:41:51.505Z,2.10
2023-11-27T03:44:18.206Z,2.20
2023-11-27T03:46:45.349Z,2.70
2023-11-27T03:49:13.544Z,2.10
2023-11-27T03:51:40.366Z,2.20
2023-11-27T03:54:08.226Z,2.10
2023-11-27T03:56:35.459Z,2.10
2023-11-27T03:59:02.154Z,2.00
2023-11-27T04:01:28.982Z,2.10
2023-11-27T04:03:56.172Z,2.10
2023-11-27T04:06:24.103Z,2.10
2023-11-27T04:08:50.940Z,2.00
2023-11-27T04:11:19.176Z,1.90
2023-11-27T04:13:45.836Z,2.00
2023-11-27T04:16:12.649Z,2.00
2023-11-27T04:18:39.482Z,2.00
2023-11-27T04:21:06.948Z,2.00
2023-11-27T04:23:33.643Z,2.00
2023-11-27T04:26:00.330Z,2.00
2023-11-27T04:28:27.076Z,2.00
2023-11-27T04:30:53.836Z,2.00
2023-11-27T04:33:21.363Z,2.50
2023-11-27T04:35:48.049Z,1.90
2023-11-27T04:38:14.762Z,2.00
2023-11-27T04:40:42.202Z,1.90
2023-11-27T04:43:08.985Z,2.00
2023-11-27T04:45:35.699Z,2.00
2023-11-27T04:48:02.403Z,2.00
2023-11-27T04:50:29.032Z,2.00
2023-11-27T04:52:55.716Z,2.00
2023-11-27T04:55:22.320Z,1.90
2023-11-27T04:57:49.015Z,2.00
2023-11-27T05:00:16.813Z,2.00
2023-11-27T05:02:44.741Z,2.00
2023-11-27T05:05:12.377Z,2.00
2023-11-27T05:07:39.008Z,2.00
2023-11-27T05:10:05.960Z,2.00
2023-11-27T05:12:33.711Z,2.00
2023-11-27T05:15:01.257Z,2.00
2023-11-27T05:17:28.152Z,2.00
2023-11-27T05:19:54.902Z,2.00
2023-11-27T05:22:21.545Z,2.00
2023-11-27T05:24:48.420Z,2.00
2023-11-27T05:27:15.018Z,2.00
2023-11-27T05:29:41.615Z,2.10
2023-11-27T05:32:11.278Z,2.10
2023-11-27T05:34:38.204Z,2.00
2023-11-27T05:37:08.962Z,2.00
2023-11-27T05:39:36.974Z,2.10
2023-11-27T05:42:04.008Z,2.10
2023-11-27T05:44:30.911Z,2.10
2023-11-27T05:46:57.608Z,2.00
2023-11-27T05:49:24.395Z,2.10
2023-11-27T05:51:52.473Z,2.10
2023-11-27T05:54:20.017Z,2.10
2023-11-27T05:56:46.613Z,2.10
2023-11-27T05:59:14.942Z,2.10
2023-11-27T06:01:41.590Z,2.10
2023-11-27T06:04:08.806Z,2.10
2023-11-27T06:06:35.525Z,2.20
2023-11-27T06:09:02.130Z,2.20
2023-11-27T06:11:28.821Z,2.20
2023-11-27T06:13:55.430Z,2.20
2023-11-27T06:16:26.530Z,2.20
2023-11-27T06:18:53.764Z,2.30
2023-11-27T06:21:20.520Z,2.30
2023-11-27T06:23:47.145Z,2.20
2023-11-27T06:26:13.727Z,2.30
2023-11-27T06:28:41.156Z,2.20
2023-11-27T06:31:07.955Z,2.20
2023-11-27T06:33:34.683Z,2.20
2023-11-27T06:36:01.739Z,2.20
2023-11-27T06:38:28.837Z,2.20
2023-11-27T06:40:55.581Z,2.10
2023-11-27T06:43:22.329Z,2.20
2023-11-27T06:45:49.173Z,2.20
2023-11-27T06:48:16.186Z,2.20
2023-11-27T06:50:43.075Z,2.10
2023-11-27T06:53:09.863Z,1.90
2023-11-27T06:55:36.573Z,1.90
2023-11-27T06:58:05.509Z,2.10
2023-11-27T07:00:32.949Z,2.10
2023-11-27T07:02:59.651Z,1.90
2023-11-27T07:05:26.338Z,2.00
2023-11-27T07:07:53.723Z,1.80
2023-11-27T07:10:20.384Z,2.10
2023-11-27T07:12:47.029Z,2.00
2023-11-27T07:15:13.700Z,1.90
2023-11-27T07:17:40.481Z,1.90
2023-11-27T07:20:07.592Z,2.40
2023-11-27T07:22:34.414Z,1.90
2023-11-27T07:25:01.130Z,1.70
2023-11-27T07:27:29.845Z,1.90
2023-11-27T07:29:56.655Z,1.80
2023-11-27T07:32:23.365Z,1.90
2023-11-27T07:34:50.425Z,2.00
2023-11-27T07:37:17.161Z,1.80
2023-11-27T07:39:45.955Z,2.00
2023-11-27T07:42:15.785Z,2.00
2023-11-27T07:44:44.411Z,2.10
2023-11-27T07:47:11.347Z,1.90
2023-11-27T07:49:38.161Z,2.10
2023-11-27T07:52:05.040Z,1.90
2023-11-27T07:54:32.490Z,2.20
2023-11-27T07:56:59.142Z,2.20
2023-11-27T07:59:27.289Z,2.20
2023-11-27T08:01:54.157Z,2.30
2023-11-27T08:04:20.911Z,2.30
2023-11-27T08:06:50.851Z,2.40
2023-11-27T08:09:18.191Z,2.40
2023-11-27T08:11:44.901Z,2.40
2023-11-27T08:14:11.544Z,2.40
2023-11-27T08:16:38.309Z,2.40
2023-11-27T08:19:05.104Z,2.40
2023-11-27T08:21:31.800Z,2.50
2023-11-27T08:23:59.467Z,2.50
2023-11-27T08:26:26.489Z,2.60
2023-11-27T08:28:53.154Z,2.60
2023-11-27T08:31:20.168Z,2.60
2023-11-27T08:33:47.544Z,2.60
2023-11-27T08:36:14.286Z,2.60
2023-11-27T08:38:40.960Z,2.70
2023-11-27T08:41:09.032Z,2.60
2023-11-27T08:43:36.821Z,2.70
2023-11-27T08:46:04.015Z,2.80
2023-11-27T08:48:30.770Z,2.90
2023-11-27T08:50:57.376Z,3.00
2023-11-27T08:53:28.877Z,3.00
2023-11-27T08:55:56.641Z,3.00
2023-11-27T08:58:23.391Z,3.10
2023-11-27T09:00:50.090Z,3.00
2023-11-27T09:03:20.013Z,3.10
2023-11-27T09:05:47.187Z,3.10
2023-11-27T09:08:14.947Z,3.20
2023-11-27T09:10:41.704Z,3.20
2023-11-27T09:13:08.910Z,3.30
2023-11-27T09:15:35.745Z,3.20
2023-11-27T09:18:03.069Z,3.20
2023-11-27T09:20:29.970Z,3.70
2023-11-27T09:22:57.730Z,3.30
2023-11-27T09:25:25.565Z,3.30
2023-11-27T09:27:52.338Z,3.30
2023-11-27T09:30:19.614Z,3.30
2023-11-27T09:32:46.584Z,3.30
2023-11-27T09:35:16.170Z,3.30
2023-11-27T09:37:43.291Z,3.30
2023-11-27T09:40:11.687Z,3.30
2023-11-27T09:42:46.421Z,3.40
2023-11-27T09:45:17.771Z,3.30
2023-11-27T09:47:48.806Z,3.40
2023-11-27T09:50:17.710Z,3.40
2023-11-27T09:52:55.774Z,3.30
2023-11-27T09:55:22.840Z,3.40
2023-11-27T09:57:50.799Z,3.40
2023-11-27T10:00:21.909Z,3.40
2023-11-27T10:02:49.348Z,3.40
2023-11-27T10:05:16.951Z,3.40
2023-11-27T10:07:45.247Z,3.40
2023-11-27T10:10:15.403Z,3.40
2023-11-27T10:12:45.721Z,3.50
2023-11-27T10:15:14.001Z,3.50
2023-11-27T10:17:42.932Z,3.50
2023-11-27T10:20:13.708Z,3.50
2023-11-27T10:22:43.691Z,3.50
2023-11-27T10:25:15.032Z,3.60
2023-11-27T10:27:42.872Z,3.60
2023-11-27T10:30:20.202Z,3.60
2023-11-27T10:32:49.964Z,3.60
2023-11-27T10:35:16.981Z,3.60
2023-11-27T10:37:44.049Z,3.60
2023-11-27T10:40:17.427Z,3.60
2023-11-27T10:42:58.863Z,3.50
2023-11-27T10:45:26.387Z,3.50
2023-11-27T10:47:55.991Z,3.50
2023-11-27T10:50:26.843Z,3.40
2023-11-27T10:52:56.834Z,3.40
2023-11-27T10:55:24.233Z,3.40
2023-11-27T10:57:51.048Z,3.30
2023-11-27T11:00:31.475Z,3.20
2023-11-27T11:03:01.414Z,3.00
2023-11-27T11:05:33.499Z,2.90
2023-11-27T11:08:00.510Z,2.90
2023-11-27T11:10:32.712Z,2.70
2023-11-27T11:13:02.039Z,2.70
2023-11-27T11:15:34.401Z,2.70
2023-11-27T11:18:12.082Z,2.60
2023-11-27T11:20:52.749Z,3.20
2023-11-27T11:23:39.516Z,2.60
2023-11-27T11:26:30.620Z,2.40
2023-11-27T11:29:12.907Z,2.40
2023-11-27T11:31:44.917Z,2.40
2023-11-27T11:34:20.992Z,2.50
2023-11-27T11:36:52.641Z,2.40
2023-11-27T11:39:22.347Z,2.50
2023-11-27T11:41:56.873Z,3.30
2023-11-27T11:44:24.820Z,2.50
2023-11-27T11:46:52.950Z,2.70
2023-11-27T11:49:26.018Z,2.50
2023-11-27T11:52:09.842Z,2.60
2023-11-27T11:54:40.365Z,2.60
2023-11-27T11:57:14.089Z,2.60
2023-11-27T11:59:40.917Z,2.60
2023-11-27T12:02:15.474Z,2.60
2023-11-27T12:04:42.335Z,2.60
2023-11-27T12:07:09.926Z,2.60
2023-11-27T12:09:36.857Z,2.60
2023-11-27T12:12:04.226Z,2.60
2023-11-27T12:14:33.852Z,2.60
2023-11-27T12:17:03.904Z,2.60
2023-11-27T12:19:31.375Z,2.60
2023-11-27T12:21:58.107Z,2.50
2023-11-27T12:24:25.439Z,2.50
2023-11-27T12:26:53.422Z,2.50
2023-11-27T12:29:23.751Z,2.60
2023-11-27T12:31:54.686Z,2.60
2023-11-27T12:34:27.656Z,2.60
2023-11-27T12:36:56.313Z,2.50
2023-11-27T12:39:27.056Z,2.40
2023-11-27T12:42:02.974Z,2.40
2023-11-27T12:44:30.336Z,2.50
2023-11-27T12:46:59.654Z,2.50
2023-11-27T12:49:30.041Z,2.50
2023-11-27T12:51:59.831Z,2.50
2023-11-27T12:54:28.828Z,2.50
2023-11-27T12:57:03.177Z,2.40
2023-11-27T12:59:29.944Z,2.50
2023-11-27T13:01:59.638Z,2.40
2023-11-27T13:04:38.467Z,2.40
2023-11-27T13:07:07.530Z,2.50
2023-11-27T13:09:34.516Z,3.00
2023-11-27T13:12:16.070Z,2.40
2023-11-27T13:14:47.404Z,2.40
2023-11-27T13:17:21.390Z,2.40
2023-11-27T13:19:57.378Z,2.30
2023-11-27T13:22:24.924Z,2.40
2023-11-27T13:24:52.260Z,2.40
2023-11-27T13:27:22.734Z,2.40
2023-11-27T13:29:51.899Z,2.40
2023-11-27T13:32:19.103Z,2.30
2023-11-27T13:34:56.761Z,2.30
2023-11-27T13:37:24.525Z,2.30
2023-11-27T13:40:02.631Z,2.30
2023-11-27T13:42:32.198Z,2.40
2023-11-27T13:44:59.656Z,2.40
2023-11-27T13:47:26.909Z,2.30
2023-11-27T13:49:56.892Z,2.30
2023-11-27T13:52:29.989Z,2.30
2023-11-27T13:54:57.686Z,2.30
2023-11-27T13:57:33.960Z,2.30
2023-11-27T14:00:01.748Z,2.30
2023-11-27T14:02:30.115Z,2.30
2023-11-27T14:05:07.732Z,2.30
2023-11-27T14:07:37.603Z,2.30
2023-11-27T14:10:08.114Z,2.30
2023-11-27T14:12:44.584Z,2.20
2023-11-27T14:15:22.880Z,2.20
2023-11-27T14:18:11.182Z,2.20
2023-11-27T14:20:46.973Z,2.20
2023-11-27T14:23:24.388Z,2.10
2023-11-27T14:26:11.056Z,2.10
2023-11-27T14:28:50.252Z,2.20
2023-11-27T14:31:20.399Z,2.10
2023-11-27T14:33:52.071Z,2.10
2023-11-27T14:36:19.162Z,2.10
2023-11-27T14:38:47.339Z,2.00
2023-11-27T14:41:14.517Z,2.00
2023-11-27T14:43:43.836Z,1.80
2023-11-27T14:46:13.102Z,1.70
2023-11-27T14:53:38.006Z,1.70
2023-11-27T14:56:10.587Z,1.60
2023-11-27T14:58:37.736Z,1.40
2023-11-27T15:01:08.879Z,1.30
2023-11-27T15:03:40.446Z,1.40
2023-11-27T15:06:11.081Z,1.50
2023-11-27T15:08:37.778Z,1.40
2023-11-27T15:11:06.794Z,1.30
2023-11-27T15:13:36.808Z,1.40
2023-11-27T15:16:04.916Z,1.30
2023-11-27T15:18:33.016Z,1.30
2023-11-27T15:20:59.928Z,1.30
2023-11-27T15:23:26.576Z,1.20
2023-11-27T15:25:53.816Z,1.20
2023-11-27T15:28:25.105Z,1.20
2023-11-27T15:30:55.594Z,1.20
2023-11-27T15:33:24.324Z,1.10
2023-11-27T15:35:51.570Z,1.10
2023-11-27T15:38:20.026Z,1.00
2023-11-27T15:40:47.261Z,0.40
2023-11-27T15:43:14.440Z,0.90
2023-11-27T15:45:42.446Z,0.90
2023-11-27T15:48:11.706Z,0.80
2023-11-27T15:50:38.910Z,0.60
2023-11-27T15:53:05.964Z,0.60
2023-11-27T15:55:34.535Z,0.40
2023-11-27T15:58:03.859Z,0.30
2023-11-27T16:00:32.982Z,0.60
2023-11-27T16:03:00.082Z,0.80
2023-11-27T16:05:29.558Z,0.60
2023-11-27T16:07:58.212Z,0.70
2023-11-27T16:10:25.680Z,0.80
2023-11-27T16:12:52.434Z,0.70
2023-11-27T16:15:19.751Z,0.30
2023-11-27T16:17:56.377Z,0.20
2023-11-27T16:20:26.549Z,0.70
2023-11-27T16:22:53.473Z,0.50
2023-11-27T16:25:21.450Z,0.50
2023-11-27T16:27:48.283Z,0.50
2023-11-27T16:30:19.008Z,0.60
2023-11-27T16:32:49.007Z,0.50
2023-11-27T16:35:25.037Z,0.60
2023-11-27T16:37:52.467Z,1.70
2023-11-27T16:40:20.783Z,0.60
2023-11-27T16:42:52.826Z,0.20
2023-11-27T16:45:23.343Z,0.70
2023-11-27T16:47:52.780Z,0.70
2023-11-27T16:50:19.749Z,0.70
2023-11-27T16:52:49.228Z,0.80
2023-11-27T16:55:19.122Z,0.70
2023-11-27T16:57:50.665Z,0.70
2023-11-27T17:00:32.601Z,0.80
2023-11-27T17:03:04.887Z,0.80
2023-11-27T17:05:33.209Z,0.40
2023-11-27T17:08:00.329Z,0.80
2023-11-27T17:10:31.604Z,0.80
2023-11-27T17:12:58.930Z,0.80
2023-11-27T17:15:26.932Z,0.80
2023-11-27T17:17:54.057Z,0.80
2023-11-27T17:20:27.089Z,0.80
2023-11-27T17:23:00.711Z,0.80
2023-11-27T17:25:33.485Z,0.80
2023-11-27T17:28:00.456Z,0.80
2023-11-27T17:30:27.611Z,0.80
2023-11-27T17:32:54.384Z,0.80
2023-11-27T17:35:21.321Z,0.80
2023-11-27T17:37:48.114Z,0.80
2023-11-27T17:40:15.293Z,0.80
2023-11-27T17:42:43.057Z,0.80
2023-11-27T17:45:17.071Z,0.80
2023-11-27T17:47:44.419Z,0.80
2023-11-27T17:50:14.784Z,0.80
2023-11-27T17:52:42.737Z,0.80
2023-11-27T17:55:10.537Z,0.80
2023-11-27T17:57:47.420Z,0.80
2023-11-27T18:00:17.987Z,0.90
2023-11-27T18:02:48.566Z,0.80
2023-11-27T18:05:16.871Z,0.80
2023-11-27T18:07:44.577Z,0.70
2023-11-27T18:10:14.308Z,0.80
2023-11-27T18:12:41.580Z,0.80
2023-11-27T18:15:08.997Z,0.80
2023-11-27T18:17:38.691Z,0.80
2023-11-27T18:20:09.673Z,0.70
2023-11-27T18:22:37.412Z,0.70
2023-11-27T18:25:06.066Z,0.70
2023-11-27T18:27:35.168Z,0.70
2023-11-27T18:30:01.832Z,0.80
2023-11-27T18:32:28.725Z,0.80
2023-11-27T18:34:55.383Z,0.80
2023-11-27T18:37:23.870Z,0.70
2023-11-27T18:39:50.835Z,0.80
2023-11-27T18:42:17.521Z,0.70
2023-11-27T18:44:44.145Z,0.80
2023-11-27T18:47:10.910Z,0.80
2023-11-27T18:49:38.025Z,0.80
2023-11-27T18:52:04.867Z,0.80
2023-11-27T18:54:31.589Z,0.80
2023-11-27T18:56:58.252Z,0.70
2023-11-27T18:59:24.898Z,0.70
2023-11-27T19:01:52.609Z,0.70
2023-11-27T19:04:20.311Z,0.60
2023-11-27T19:06:47.030Z,0.60
2023-11-27T19:09:17.171Z,0.60
2023-11-27T19:11:43.862Z,0.60
2023-11-27T19:14:10.616Z,1.00
2023-11-27T19:16:37.600Z,0.80
2023-11-27T19:19:05.928Z,0.40
2023-11-27T19:21:32.552Z,0.40
2023-11-27T19:23:59.227Z,0.50
2023-11-27T19:26:27.139Z,0.50
2023-11-27T19:28:53.862Z,0.50
2023-11-27T19:31:20.675Z,0.50
2023-11-27T19:33:47.644Z,0.40
2023-11-27T19:36:21.459Z,0.50
2023-11-27T19:38:48.207Z,0.70
2023-11-27T19:41:15.021Z,0.40
2023-11-27T19:43:44.131Z,0.70
2023-11-27T19:46:12.195Z,0.30
2023-11-27T19:48:41.938Z,0.20
2023-11-27T19:51:09.843Z,0.40
2023-11-27T19:53:40.652Z,0.40
2023-11-27T19:56:08.838Z,0.00
2023-11-27T19:58:35.618Z,0.60
2023-11-27T20:01:03.995Z,0.30
2023-11-27T20:03:30.899Z,0.20
2023-11-27T20:05:58.911Z,0.50
2023-11-27T20:08:26.181Z,0.50
2023-11-27T20:10:53.070Z,0.30
2023-11-27T20:13:20.088Z,0.10
2023-11-27T20:15:46.829Z,0.30
2023-11-27T20:18:13.512Z,0.50
2023-11-27T20:20:44.444Z,0.40
2023-11-27T20:23:11.697Z,0.50
2023-11-27T20:25:38.749Z,0.40
2023-11-27T20:28:05.445Z,0.20
2023-11-27T20:30:32.440Z,0.40
2023-11-27T20:33:03.929Z,0.50
2023-11-27T20:35:32.029Z,0.50
2023-11-27T20:37:59.983Z,0.50
2023-11-27T20:40:26.643Z,0.50
2023-11-27T20:42:56.889Z,0.60
2023-11-27T20:45:25.326Z,0.60
2023-11-27T20:47:52.918Z,0.50
2023-11-27T20:50:20.604Z,0.50
2023-11-27T20:52:47.892Z,0.40
2023-11-27T20:55:14.571Z,0.50
2023-11-27T20:57:41.382Z,0.60
2023-11-27T21:00:11.638Z,0.60
2023-11-27T21:02:40.592Z,0.60
2023-11-27T21:05:07.539Z,0.50
2023-11-27T21:07:34.243Z,0.60
2023-11-27T21:10:00.922Z,0.50
2023-11-27T21:12:27.988Z,0.50
2023-11-27T21:14:54.716Z,0.50
2023-11-27T21:17:21.448Z,0.50
2023-11-27T21:19:58.478Z,0.50
2023-11-27T21:22:25.536Z,0.60
2023-11-27T21:24:56.918Z,0.40
2023-11-27T21:27:25.098Z,0.30
2023-11-27T21:29:51.978Z,1.40
2023-11-27T21:32:19.316Z,1.00
2023-11-27T21:34:46.128Z,0.40
2023-11-27T21:37:14.578Z,0.40
2023-11-27T21:39:41.242Z,0.30
2023-11-27T21:42:08.000Z,0.20
2023-11-27T21:44:34.659Z,0.50
2023-11-27T21:47:01.739Z,0.20
2023-11-27T21:49:28.461Z,0.40
2023-11-27T21:51:56.334Z,0.30
2023-11-27T21:54:23.366Z,0.20
2023-11-27T21:56:49.983Z,0.10
2023-11-27T21:59:16.655Z,0.30
2023-11-27T22:01:44.497Z,2.20
2023-11-27T22:04:11.380Z,0.40
2023-11-27T22:06:39.424Z,0.50
2023-11-27T22:09:07.447Z,0.50
2023-11-27T22:11:34.161Z,0.50
2023-11-27T22:14:00.887Z,0.50
2023-11-27T22:16:27.746Z,0.50
2023-11-27T22:18:54.449Z,0.50
2023-11-27T22:21:21.093Z,0.50
2023-11-27T22:23:47.742Z,0.50
2023-11-27T22:26:14.485Z,0.30
2023-11-27T22:28:41.147Z,0.40
2023-11-27T22:31:17.336Z,0.50
2023-11-27T22:33:44.029Z,0.50
2023-11-27T22:36:10.874Z,0.50
2023-11-27T22:38:37.500Z,0.60
2023-11-27T22:41:04.204Z,0.30
2023-11-27T22:43:30.919Z,0.60
2023-11-27T22:45:58.596Z,0.50
2023-11-27T22:48:26.333Z,0.50
2023-11-27T22:50:53.004Z,0.40
2023-11-27T22:53:19.621Z,0.40
2023-11-27T22:55:47.151Z,0.40
2023-11-27T22:58:13.826Z,0.40
2023-11-27T23:00:40.466Z,0.20
2023-11-27T23:03:07.305Z,0.30
2023-11-27T23:05:34.642Z,0.20
2023-11-27T23:08:01.307Z,0.30
2023-11-27T23:10:27.957Z,0.30
2023-11-27T23:12:54.611Z,0.30
2023-11-27T23:15:21.315Z,0.20
2023-11-27T23:17:48.773Z,0.10
2023-11-27T23:20:15.940Z,0.10
2023-11-27T23:22:42.653Z,-0.10
2023-11-27T23:25:09.342Z,0.30
2023-11-27T23:27:36.141Z,0.40
2023-11-27T23:30:02.802Z,0.30
2023-11-27T23:32:30.488Z,-0.10
2023-11-27T23:34:57.198Z,0.10
2023-11-27T23:37:23.858Z,0.10
2023-11-27T23:39:50.528Z,0.20
2023-11-27T23:42:17.205Z,0.10
2023-11-27T23:44:43.885Z,0.30
2023-11-27T23:47:10.614Z,0.30
2023-11-27T23:49:37.914Z,0.40
2023-11-27T23:52:06.741Z,0.30
2023-11-27T23:54:33.433Z,0.50
2023-11-27T23:57:00.051Z,0.50
2023-11-27T23:59:26.683Z,0.10
